sensor_id;sensor_type;location;lat;lon;timestamp;temperature;humidity
53748;DHT22;39655;53.210;5.768;2022-11-20T00:02:19;0.70;88.90
53748;DHT22;39655;53.210;5.768;2022-11-20T00:04:47;0.60;88.60
53748;DHT22;39655;53.210;5.768;2022-11-20T00:07:13;0.70;88.30
53748;DHT22;39655;53.210;5.768;2022-11-20T00:09:39;0.70;88.20
53748;DHT22;39655;53.210;5.768;2022-11-20T00:12:04;0.70;88.20
53748;DHT22;39655;53.210;5.768;2022-11-20T00:14:30;0.70;88.20
53748;DHT22;39655;53.210;5.768;2022-11-20T00:16:56;0.70;88.20
53748;DHT22;39655;53.210;5.768;2022-11-20T00:19:22;0.80;88.30
53748;DHT22;39655;53.210;5.768;2022-11-20T00:21:47;0.80;88.40
53748;DHT22;39655;53.210;5.768;2022-11-20T00:24:16;0.70;88.40
53748;DHT22;39655;53.210;5.768;2022-11-20T00:26:42;0.80;88.50
53748;DHT22;39655;53.210;5.768;2022-11-20T00:29:09;0.80;88.40
53748;DHT22;39655;53.210;5.768;2022-11-20T00:31:35;0.80;88.10
53748;DHT22;39655;53.210;5.768;2022-11-20T00:34:01;0.80;88.00
53748;DHT22;39655;53.210;5.768;2022-11-20T00:36:28;0.80;88.00
53748;DHT22;39655;53.210;5.768;2022-11-20T00:38:55;0.80;88.00
53748;DHT22;39655;53.210;5.768;2022-11-20T00:41:22;0.70;88.20
53748;DHT22;39655;53.210;5.768;2022-11-20T00:43:48;0.70;88.30
53748;DHT22;39655;53.210;5.768;2022-11-20T00:46:16;0.70;88.30
53748;DHT22;39655;53.210;5.768;2022-11-20T00:48:42;0.70;88.40
53748;DHT22;39655;53.210;5.768;2022-11-20T00:51:08;0.70;88.50
53748;DHT22;39655;53.210;5.768;2022-11-20T00:53:34;0.70;88.70
53748;DHT22;39655;53.210;5.768;2022-11-20T00:56:06;0.70;88.80
53748;DHT22;39655;53.210;5.768;2022-11-20T00:58:33;0.70;89.00
53748;DHT22;39655;53.210;5.768;2022-11-20T01:01:03;0.80;89.00
53748;DHT22;39655;53.210;5.768;2022-11-20T01:03:37;0.80;89.10
53748;DHT22;39655;53.210;5.768;2022-11-20T01:06:05;0.80;88.90
53748;DHT22;39655;53.210;5.768;2022-11-20T01:08:33;0.80;88.80
53748;DHT22;39655;53.210;5.768;2022-11-20T01:11:07;0.80;88.80
53748;DHT22;39655;53.210;5.768;2022-11-20T01:13:34;0.80;88.70
53748;DHT22;39655;53.210;5.768;2022-11-20T01:16:07;0.80;88.70
53748;DHT22;39655;53.210;5.768;2022-11-20T01:18:48;0.80;88.70
53748;DHT22;39655;53.210;5.768;2022-11-20T01:21:20;0.80;88.70
53748;DHT22;39655;53.210;5.768;2022-11-20T01:23:46;0.80;88.70
53748;DHT22;39655;53.210;5.768;2022-11-20T01:26:15;0.80;88.80
53748;DHT22;39655;53.210;5.768;2022-11-20T01:28:41;0.80;88.70
53748;DHT22;39655;53.210;5.768;2022-11-20T01:31:22;0.80;88.30
53748;DHT22;39655;53.210;5.768;2022-11-20T01:33:49;0.70;88.30
53748;DHT22;39655;53.210;5.768;2022-11-20T01:36:16;0.80;88.40
53748;DHT22;39655;53.210;5.768;2022-11-20T01:38:43;0.80;88.50
53748;DHT22;39655;53.210;5.768;2022-11-20T01:41:13;0.80;88.50
53748;DHT22;39655;53.210;5.768;2022-11-20T01:43:59;0.80;88.50
53748;DHT22;39655;53.210;5.768;2022-11-20T01:46:25;0.80;88.40
53748;DHT22;39655;53.210;5.768;2022-11-20T01:48:57;0.80;88.50
53748;DHT22;39655;53.210;5.768;2022-11-20T01:51:32;0.80;88.50
53748;DHT22;39655;53.210;5.768;2022-11-20T01:54:02;0.80;88.60
53748;DHT22;39655;53.210;5.768;2022-11-20T01:56:31;0.80;88.60
53748;DHT22;39655;53.210;5.768;2022-11-20T01:58:59;0.80;88.70
53748;DHT22;39655;53.210;5.768;2022-11-20T02:01:27;0.80;88.70
53748;DHT22;39655;53.210;5.768;2022-11-20T02:03:53;0.80;88.70
53748;DHT22;39655;53.210;5.768;2022-11-20T02:06:24;0.80;88.70
53748;DHT22;39655;53.210;5.768;2022-11-20T02:08:51;0.80;88.80
53748;DHT22;39655;53.210;5.768;2022-11-20T02:11:18;0.80;88.80
53748;DHT22;39655;53.210;5.768;2022-11-20T02:13:44;0.80;88.90
53748;DHT22;39655;53.210;5.768;2022-11-20T02:16:20;0.80;88.90
53748;DHT22;39655;53.210;5.768;2022-11-20T02:18:46;0.90;88.90
53748;DHT22;39655;53.210;5.768;2022-11-20T02:26:12;0.90;88.90
53748;DHT22;39655;53.210;5.768;2022-11-20T02:28:38;0.90;88.90
53748;DHT22;39655;53.210;5.768;2022-11-20T02:31:07;0.90;88.90
53748;DHT22;39655;53.210;5.768;2022-11-20T02:33:33;0.90;88.90
53748;DHT22;39655;53.210;5.768;2022-11-20T02:35:59;0.90;88.90
53748;DHT22;39655;53.210;5.768;2022-11-20T02:38:25;0.90;88.90
53748;DHT22;39655;53.210;5.768;2022-11-20T02:40:51;0.90;88.80
53748;DHT22;39655;53.210;5.768;2022-11-20T02:43:16;0.90;88.80
53748;DHT22;39655;53.210;5.768;2022-11-20T02:45:42;0.90;88.70
53748;DHT22;39655;53.210;5.768;2022-11-20T02:48:08;1.00;88.70
53748;DHT22;39655;53.210;5.768;2022-11-20T02:50:37;1.00;88.70
53748;DHT22;39655;53.210;5.768;2022-11-20T02:53:03;1.00;88.70
53748;DHT22;39655;53.210;5.768;2022-11-20T02:55:29;1.00;88.70
53748;DHT22;39655;53.210;5.768;2022-11-20T02:57:55;1.00;88.70
53748;DHT22;39655;53.210;5.768;2022-11-20T03:00:21;1.00;88.70
53748;DHT22;39655;53.210;5.768;2022-11-20T03:02:47;0.90;88.60
53748;DHT22;39655;53.210;5.768;2022-11-20T03:05:12;1.00;88.60
53748;DHT22;39655;53.210;5.768;2022-11-20T03:07:38;1.00;88.50
53748;DHT22;39655;53.210;5.768;2022-11-20T03:10:04;1.00;88.40
53748;DHT22;39655;53.210;5.768;2022-11-20T03:12:30;1.00;88.30
53748;DHT22;39655;53.210;5.768;2022-11-20T03:14:56;1.00;88.30
53748;DHT22;39655;53.210;5.768;2022-11-20T03:17:21;1.00;88.20
53748;DHT22;39655;53.210;5.768;2022-11-20T03:19:47;1.00;88.20
53748;DHT22;39655;53.210;5.768;2022-11-20T03:22:13;1.00;88.10
53748;DHT22;39655;53.210;5.768;2022-11-20T03:24:41;1.00;87.90
53748;DHT22;39655;53.210;5.768;2022-11-20T03:27:07;1.00;87.90
53748;DHT22;39655;53.210;5.768;2022-11-20T03:29:32;1.00;87.80
53748;DHT22;39655;53.210;5.768;2022-11-20T03:31:58;1.00;87.60
53748;DHT22;39655;53.210;5.768;2022-11-20T03:34:23;1.00;87.50
53748;DHT22;39655;53.210;5.768;2022-11-20T03:36:49;0.90;87.50
53748;DHT22;39655;53.210;5.768;2022-11-20T03:39:15;0.90;87.50
53748;DHT22;39655;53.210;5.768;2022-11-20T03:41:41;0.90;87.50
53748;DHT22;39655;53.210;5.768;2022-11-20T03:44:09;0.90;87.50
53748;DHT22;39655;53.210;5.768;2022-11-20T03:46:35;0.90;87.50
53748;DHT22;39655;53.210;5.768;2022-11-20T03:49:01;0.80;87.60
53748;DHT22;39655;53.210;5.768;2022-11-20T03:51:31;0.80;87.60
53748;DHT22;39655;53.210;5.768;2022-11-20T03:54:00;0.80;87.70
53748;DHT22;39655;53.210;5.768;2022-11-20T03:56:29;0.70;87.60
53748;DHT22;39655;53.210;5.768;2022-11-20T03:58:55;0.70;87.60
53748;DHT22;39655;53.210;5.768;2022-11-20T04:01:27;0.70;87.60
53748;DHT22;39655;53.210;5.768;2022-11-20T04:03:54;0.70;87.50
53748;DHT22;39655;53.210;5.768;2022-11-20T04:06:23;0.70;87.60
53748;DHT22;39655;53.210;5.768;2022-11-20T04:08:49;0.60;87.60
53748;DHT22;39655;53.210;5.768;2022-11-20T04:13:50;0.60;87.60
53748;DHT22;39655;53.210;5.768;2022-11-20T04:16:17;0.60;87.60
53748;DHT22;39655;53.210;5.768;2022-11-20T04:18:43;0.60;87.60
53748;DHT22;39655;53.210;5.768;2022-11-20T04:21:10;0.50;87.50
53748;DHT22;39655;53.210;5.768;2022-11-20T04:23:36;0.50;87.60
53748;DHT22;39655;53.210;5.768;2022-11-20T04:26:03;0.50;87.70
53748;DHT22;39655;53.210;5.768;2022-11-20T04:28:29;0.50;87.70
53748;DHT22;39655;53.210;5.768;2022-11-20T04:31:08;0.50;87.70
53748;DHT22;39655;53.210;5.768;2022-11-20T04:33:35;0.50;87.60
53748;DHT22;39655;53.210;5.768;2022-11-20T04:36:11;0.40;87.50
53748;DHT22;39655;53.210;5.768;2022-11-20T04:38:37;0.40;87.60
53748;DHT22;39655;53.210;5.768;2022-11-20T04:41:05;0.40;87.60
53748;DHT22;39655;53.210;5.768;2022-11-20T04:43:31;0.40;87.70
53748;DHT22;39655;53.210;5.768;2022-11-20T04:45:58;0.30;87.80
53748;DHT22;39655;53.210;5.768;2022-11-20T04:48:25;0.30;88.00
53748;DHT22;39655;53.210;5.768;2022-11-20T04:50:51;0.30;88.30
53748;DHT22;39655;53.210;5.768;2022-11-20T04:53:17;0.20;88.20
53748;DHT22;39655;53.210;5.768;2022-11-20T04:55:44;0.20;88.20
53748;DHT22;39655;53.210;5.768;2022-11-20T04:58:09;0.20;88.30
53748;DHT22;39655;53.210;5.768;2022-11-20T05:00:35;0.20;88.40
53748;DHT22;39655;53.210;5.768;2022-11-20T05:03:01;0.10;88.40
53748;DHT22;39655;53.210;5.768;2022-11-20T05:05:26;0.10;88.50
53748;DHT22;39655;53.210;5.768;2022-11-20T05:07:52;0.10;88.50
53748;DHT22;39655;53.210;5.768;2022-11-20T05:10:18;0.10;88.60
53748;DHT22;39655;53.210;5.768;2022-11-20T05:12:43;0.00;88.70
53748;DHT22;39655;53.210;5.768;2022-11-20T05:15:09;0.00;88.70
53748;DHT22;39655;53.210;5.768;2022-11-20T05:17:35;0.00;88.70
53748;DHT22;39655;53.210;5.768;2022-11-20T05:20:00;0.00;88.90
53748;DHT22;39655;53.210;5.768;2022-11-20T05:22:26;0.00;88.90
53748;DHT22;39655;53.210;5.768;2022-11-20T05:24:52;0.00;88.80
53748;DHT22;39655;53.210;5.768;2022-11-20T05:27:17;0.00;88.80
53748;DHT22;39655;53.210;5.768;2022-11-20T05:29:43;0.00;88.70
53748;DHT22;39655;53.210;5.768;2022-11-20T05:32:09;0.00;88.80
53748;DHT22;39655;53.210;5.768;2022-11-20T05:34:35;0.00;88.90
53748;DHT22;39655;53.210;5.768;2022-11-20T05:37:01;0.00;88.80
53748;DHT22;39655;53.210;5.768;2022-11-20T05:39:27;0.00;88.80
53748;DHT22;39655;53.210;5.768;2022-11-20T05:41:53;-3276.70;88.80
53748;DHT22;39655;53.210;5.768;2022-11-20T05:44:38;-3276.70;88.80
53748;DHT22;39655;53.210;5.768;2022-11-20T05:47:04;-3276.60;88.80
53748;DHT22;39655;53.210;5.768;2022-11-20T05:49:30;-3276.60;88.90
53748;DHT22;39655;53.210;5.768;2022-11-20T05:51:56;-3276.60;88.90
53748;DHT22;39655;53.210;5.768;2022-11-20T05:54:21;-3276.50;88.90
53748;DHT22;39655;53.210;5.768;2022-11-20T05:56:47;-3276.50;88.90
53748;DHT22;39655;53.210;5.768;2022-11-20T05:59:13;-3276.50;89.10
53748;DHT22;39655;53.210;5.768;2022-11-20T06:01:38;-3276.50;89.00
53748;DHT22;39655;53.210;5.768;2022-11-20T06:04:04;-3276.50;89.00
53748;DHT22;39655;53.210;5.768;2022-11-20T06:06:30;-3276.50;89.00
53748;DHT22;39655;53.210;5.768;2022-11-20T06:08:55;-3276.50;89.00
53748;DHT22;39655;53.210;5.768;2022-11-20T06:11:21;-3276.50;89.10
53748;DHT22;39655;53.210;5.768;2022-11-20T06:13:48;-3276.50;89.10
53748;DHT22;39655;53.210;5.768;2022-11-20T06:16:16;-3276.50;89.20
53748;DHT22;39655;53.210;5.768;2022-11-20T06:18:42;-3276.50;89.30
53748;DHT22;39655;53.210;5.768;2022-11-20T06:21:19;-3276.50;89.30
53748;DHT22;39655;53.210;5.768;2022-11-20T06:23:46;-3276.60;89.20
53748;DHT22;39655;53.210;5.768;2022-11-20T06:26:18;-3276.60;89.20
53748;DHT22;39655;53.210;5.768;2022-11-20T06:28:44;-3276.60;89.30
53748;DHT22;39655;53.210;5.768;2022-11-20T06:31:12;-3276.60;89.30
53748;DHT22;39655;53.210;5.768;2022-11-20T06:33:39;-3276.60;89.30
53748;DHT22;39655;53.210;5.768;2022-11-20T06:36:05;-3276.60;89.30
53748;DHT22;39655;53.210;5.768;2022-11-20T06:38:31;-3276.70;89.40
53748;DHT22;39655;53.210;5.768;2022-11-20T06:40:57;-3276.70;89.40
53748;DHT22;39655;53.210;5.768;2022-11-20T06:43:23;-3276.70;89.40
53748;DHT22;39655;53.210;5.768;2022-11-20T06:45:57;-3276.70;89.30
53748;DHT22;39655;53.210;5.768;2022-11-20T06:48:23;-3276.70;89.30
53748;DHT22;39655;53.210;5.768;2022-11-20T06:50:49;-3276.70;89.30
53748;DHT22;39655;53.210;5.768;2022-11-20T06:53:15;-3276.70;89.20
53748;DHT22;39655;53.210;5.768;2022-11-20T06:55:45;-3276.70;89.10
53748;DHT22;39655;53.210;5.768;2022-11-20T06:58:12;0.00;89.10
53748;DHT22;39655;53.210;5.768;2022-11-20T07:00:39;0.00;89.10
53748;DHT22;39655;53.210;5.768;2022-11-20T07:03:05;0.00;89.10
53748;DHT22;39655;53.210;5.768;2022-11-20T07:05:32;0.00;89.10
53748;DHT22;39655;53.210;5.768;2022-11-20T07:07:57;0.00;89.10
53748;DHT22;39655;53.210;5.768;2022-11-20T07:10:24;0.00;89.10
53748;DHT22;39655;53.210;5.768;2022-11-20T07:12:53;0.00;89.10
53748;DHT22;39655;53.210;5.768;2022-11-20T07:15:20;0.00;89.00
53748;DHT22;39655;53.210;5.768;2022-11-20T07:17:46;0.00;89.10
53748;DHT22;39655;53.210;5.768;2022-11-20T07:20:12;0.00;89.10
53748;DHT22;39655;53.210;5.768;2022-11-20T07:22:38;0.00;89.10
53748;DHT22;39655;53.210;5.768;2022-11-20T07:25:04;0.00;89.10
53748;DHT22;39655;53.210;5.768;2022-11-20T07:27:30;0.00;89.10
53748;DHT22;39655;53.210;5.768;2022-11-20T07:29:58;0.00;89.10
53748;DHT22;39655;53.210;5.768;2022-11-20T07:32:24;0.00;89.10
53748;DHT22;39655;53.210;5.768;2022-11-20T07:34:50;0.00;89.00
53748;DHT22;39655;53.210;5.768;2022-11-20T07:37:16;0.00;89.00
53748;DHT22;39655;53.210;5.768;2022-11-20T07:39:41;0.00;89.00
53748;DHT22;39655;53.210;5.768;2022-11-20T07:42:08;0.00;89.00
53748;DHT22;39655;53.210;5.768;2022-11-20T07:44:34;0.00;89.00
53748;DHT22;39655;53.210;5.768;2022-11-20T07:47:00;0.00;89.10
53748;DHT22;39655;53.210;5.768;2022-11-20T07:49:26;0.00;89.20
53748;DHT22;39655;53.210;5.768;2022-11-20T07:51:54;0.00;89.30
53748;DHT22;39655;53.210;5.768;2022-11-20T07:54:23;0.00;89.40
53748;DHT22;39655;53.210;5.768;2022-11-20T07:56:49;0.00;89.40
53748;DHT22;39655;53.210;5.768;2022-11-20T07:59:15;0.00;89.50
53748;DHT22;39655;53.210;5.768;2022-11-20T08:01:42;0.10;89.20
53748;DHT22;39655;53.210;5.768;2022-11-20T08:04:08;0.10;89.20
53748;DHT22;39655;53.210;5.768;2022-11-20T08:06:36;0.20;89.10
53748;DHT22;39655;53.210;5.768;2022-11-20T08:09:03;0.20;89.10
53748;DHT22;39655;53.210;5.768;2022-11-20T08:11:29;0.20;89.10
53748;DHT22;39655;53.210;5.768;2022-11-20T08:14:16;0.20;89.10
53748;DHT22;39655;53.210;5.768;2022-11-20T08:16:46;0.20;89.20
53748;DHT22;39655;53.210;5.768;2022-11-20T08:19:13;0.30;89.30
53748;DHT22;39655;53.210;5.768;2022-11-20T08:21:40;0.30;89.30
53748;DHT22;39655;53.210;5.768;2022-11-20T08:24:07;0.30;89.50
53748;DHT22;39655;53.210;5.768;2022-11-20T08:26:33;0.40;89.50
53748;DHT22;39655;53.210;5.768;2022-11-20T08:28:59;0.40;89.60
53748;DHT22;39655;53.210;5.768;2022-11-20T08:31:26;0.50;89.70
53748;DHT22;39655;53.210;5.768;2022-11-20T08:33:53;0.40;89.70
53748;DHT22;39655;53.210;5.768;2022-11-20T08:36:19;0.40;89.70
53748;DHT22;39655;53.210;5.768;2022-11-20T08:38:55;0.50;89.70
53748;DHT22;39655;53.210;5.768;2022-11-20T08:41:22;0.50;89.80
53748;DHT22;39655;53.210;5.768;2022-11-20T08:43:59;0.50;89.80
53748;DHT22;39655;53.210;5.768;2022-11-20T08:46:26;0.60;89.80
53748;DHT22;39655;53.210;5.768;2022-11-20T08:48:52;0.60;89.90
53748;DHT22;39655;53.210;5.768;2022-11-20T08:51:19;0.70;89.90
53748;DHT22;39655;53.210;5.768;2022-11-20T08:53:45;0.70;89.90
53748;DHT22;39655;53.210;5.768;2022-11-20T08:56:12;0.70;89.90
53748;DHT22;39655;53.210;5.768;2022-11-20T08:58:38;0.80;89.90
53748;DHT22;39655;53.210;5.768;2022-11-20T09:01:06;0.90;89.70
53748;DHT22;39655;53.210;5.768;2022-11-20T09:03:32;1.00;89.70
53748;DHT22;39655;53.210;5.768;2022-11-20T09:05:59;1.10;89.60
53748;DHT22;39655;53.210;5.768;2022-11-20T09:08:25;1.10;89.30
53748;DHT22;39655;53.210;5.768;2022-11-20T09:10:55;1.20;89.30
53748;DHT22;39655;53.210;5.768;2022-11-20T09:13:22;1.30;89.10
53748;DHT22;39655;53.210;5.768;2022-11-20T09:16:00;1.30;89.10
53748;DHT22;39655;53.210;5.768;2022-11-20T09:18:27;1.40;88.70
53748;DHT22;39655;53.210;5.768;2022-11-20T09:20:57;1.40;88.40
53748;DHT22;39655;53.210;5.768;2022-11-20T09:23:24;1.40;88.20
53748;DHT22;39655;53.210;5.768;2022-11-20T09:25:50;1.50;87.90
53748;DHT22;39655;53.210;5.768;2022-11-20T09:28:16;1.60;87.80
53748;DHT22;39655;53.210;5.768;2022-11-20T09:30:46;1.70;87.80
53748;DHT22;39655;53.210;5.768;2022-11-20T09:33:12;1.70;87.10
53748;DHT22;39655;53.210;5.768;2022-11-20T09:35:38;1.70;87.20
53748;DHT22;39655;53.210;5.768;2022-11-20T09:38:05;1.80;87.20
53748;DHT22;39655;53.210;5.768;2022-11-20T09:40:32;1.90;86.90
53748;DHT22;39655;53.210;5.768;2022-11-20T09:43:20;1.90;86.70
53748;DHT22;39655;53.210;5.768;2022-11-20T09:46:15;1.90;86.80
53748;DHT22;39655;53.210;5.768;2022-11-20T09:49:09;2.10;86.90
53748;DHT22;39655;53.210;5.768;2022-11-20T09:51:47;2.10;86.90
53748;DHT22;39655;53.210;5.768;2022-11-20T09:54:21;2.20;87.00
53748;DHT22;39655;53.210;5.768;2022-11-20T09:56:50;2.20;86.60
53748;DHT22;39655;53.210;5.768;2022-11-20T10:02:16;2.30;86.30
53748;DHT22;39655;53.210;5.768;2022-11-20T10:04:49;2.40;86.10
53748;DHT22;39655;53.210;5.768;2022-11-20T10:07:21;2.40;86.10
53748;DHT22;39655;53.210;5.768;2022-11-20T10:09:54;2.50;86.10
53748;DHT22;39655;53.210;5.768;2022-11-20T10:26:25;2.70;85.30
53748;DHT22;39655;53.210;5.768;2022-11-20T10:31:34;2.80;85.40
53748;DHT22;39655;53.210;5.768;2022-11-20T10:34:27;2.90;85.30
53748;DHT22;39655;53.210;5.768;2022-11-20T10:37:16;2.90;85.30
53748;DHT22;39655;53.210;5.768;2022-11-20T10:42:48;3.10;84.90
53748;DHT22;39655;53.210;5.768;2022-11-20T10:48:01;3.20;84.50
53748;DHT22;39655;53.210;5.768;2022-11-20T10:50:35;3.30;84.30
53748;DHT22;39655;53.210;5.768;2022-11-20T10:53:47;3.30;83.90
53748;DHT22;39655;53.210;5.768;2022-11-20T10:56:02;3.30;83.70
53748;DHT22;39655;53.210;5.768;2022-11-20T11:01:21;3.40;83.10
53748;DHT22;39655;53.210;5.768;2022-11-20T11:03:52;3.40;82.90
53748;DHT22;39655;53.210;5.768;2022-11-20T11:06:40;3.40;83.10
53748;DHT22;39655;53.210;5.768;2022-11-20T11:09:16;3.40;83.30
53748;DHT22;39655;53.210;5.768;2022-11-20T11:11:46;3.40;83.10
53748;DHT22;39655;53.210;5.768;2022-11-20T11:14:16;3.40;83.00
53748;DHT22;39655;53.210;5.768;2022-11-20T11:16:53;3.40;82.60
53748;DHT22;39655;53.210;5.768;2022-11-20T11:19:19;3.50;82.20
53748;DHT22;39655;53.210;5.768;2022-11-20T11:21:54;3.50;80.90
53748;DHT22;39655;53.210;5.768;2022-11-20T11:24:22;3.50;79.50
53748;DHT22;39655;53.210;5.768;2022-11-20T11:27:03;3.50;79.60
53748;DHT22;39655;53.210;5.768;2022-11-20T11:29:32;3.60;79.20
53748;DHT22;39655;53.210;5.768;2022-11-20T11:32:28;3.60;77.60
53748;DHT22;39655;53.210;5.768;2022-11-20T11:35:05;3.60;77.20
53748;DHT22;39655;53.210;5.768;2022-11-20T11:37:36;3.70;77.30
53748;DHT22;39655;53.210;5.768;2022-11-20T11:40:04;3.90;77.80
53748;DHT22;39655;53.210;5.768;2022-11-20T11:42:30;3.90;75.90
53748;DHT22;39655;53.210;5.768;2022-11-20T11:44:59;4.10;76.00
53748;DHT22;39655;53.210;5.768;2022-11-20T11:47:45;4.20;73.70
53748;DHT22;39655;53.210;5.768;2022-11-20T11:55:33;4.50;70.40
53748;DHT22;39655;53.210;5.768;2022-11-20T12:03:30;4.30;68.30
53748;DHT22;39655;53.210;5.768;2022-11-20T12:06:04;4.20;65.50
53748;DHT22;39655;53.210;5.768;2022-11-20T12:08:50;4.10;66.90
53748;DHT22;39655;53.210;5.768;2022-11-20T12:16:21;4.00;65.30
53748;DHT22;39655;53.210;5.768;2022-11-20T12:18:52;4.00;65.10
53748;DHT22;39655;53.210;5.768;2022-11-20T12:21:53;4.00;65.40
53748;DHT22;39655;53.210;5.768;2022-11-20T12:24:41;4.00;65.40
53748;DHT22;39655;53.210;5.768;2022-11-20T13:01:48;3.90;65.50
53748;DHT22;39655;53.210;5.768;2022-11-20T13:04:34;3.90;66.70
53748;DHT22;39655;53.210;5.768;2022-11-20T13:07:08;3.90;66.90
53748;DHT22;39655;53.210;5.768;2022-11-20T13:09:45;3.90;67.70
53748;DHT22;39655;53.210;5.768;2022-11-20T13:12:50;3.90;68.20
53748;DHT22;39655;53.210;5.768;2022-11-20T13:18:12;3.90;67.50
53748;DHT22;39655;53.210;5.768;2022-11-20T13:20:43;3.90;65.60
53748;DHT22;39655;53.210;5.768;2022-11-20T13:23:09;3.90;67.20
53748;DHT22;39655;53.210;5.768;2022-11-20T13:25:37;3.90;67.10
53748;DHT22;39655;53.210;5.768;2022-11-20T13:28:27;3.80;66.60
53748;DHT22;39655;53.210;5.768;2022-11-20T13:30:55;3.90;67.50
53748;DHT22;39655;53.210;5.768;2022-11-20T13:33:51;3.80;67.20
53748;DHT22;39655;53.210;5.768;2022-11-20T13:36:25;3.80;67.50
53748;DHT22;39655;53.210;5.768;2022-11-20T13:38:53;3.80;67.80
53748;DHT22;39655;53.210;5.768;2022-11-20T13:44:38;3.80;67.60
53748;DHT22;39655;53.210;5.768;2022-11-20T13:47:23;3.80;68.30
53748;DHT22;39655;53.210;5.768;2022-11-20T13:49:51;3.80;69.00
53748;DHT22;39655;53.210;5.768;2022-11-20T13:55:12;3.70;69.90
53748;DHT22;39655;53.210;5.768;2022-11-20T13:57:58;3.70;69.40
53748;DHT22;39655;53.210;5.768;2022-11-20T14:00:26;3.70;69.60
53748;DHT22;39655;53.210;5.768;2022-11-20T14:03:11;3.70;69.60
53748;DHT22;39655;53.210;5.768;2022-11-20T14:05:51;3.70;69.90
53748;DHT22;39655;53.210;5.768;2022-11-20T14:08:27;3.70;70.30
53748;DHT22;39655;53.210;5.768;2022-11-20T14:11:16;3.70;70.60
53748;DHT22;39655;53.210;5.768;2022-11-20T14:17:19;3.70;70.30
53748;DHT22;39655;53.210;5.768;2022-11-20T14:19:47;3.60;69.90
53748;DHT22;39655;53.210;5.768;2022-11-20T14:22:22;3.60;70.30
53748;DHT22;39655;53.210;5.768;2022-11-20T14:24:49;3.60;70.40
53748;DHT22;39655;53.210;5.768;2022-11-20T14:27:20;3.60;70.80
53748;DHT22;39655;53.210;5.768;2022-11-20T14:29:50;3.60;70.90
53748;DHT22;39655;53.210;5.768;2022-11-20T14:32:20;3.60;70.80
53748;DHT22;39655;53.210;5.768;2022-11-20T14:34:49;3.50;71.30
53748;DHT22;39655;53.210;5.768;2022-11-20T14:37:21;3.50;70.70
53748;DHT22;39655;53.210;5.768;2022-11-20T14:39:53;3.50;70.90
53748;DHT22;39655;53.210;5.768;2022-11-20T14:42:22;3.50;71.50
53748;DHT22;39655;53.210;5.768;2022-11-20T14:44:49;3.50;71.40
53748;DHT22;39655;53.210;5.768;2022-11-20T14:47:19;3.50;71.60
53748;DHT22;39655;53.210;5.768;2022-11-20T14:49:46;3.50;71.50
53748;DHT22;39655;53.210;5.768;2022-11-20T14:52:20;3.50;71.80
53748;DHT22;39655;53.210;5.768;2022-11-20T14:54:56;3.50;71.90
53748;DHT22;39655;53.210;5.768;2022-11-20T14:57:34;3.50;71.40
53748;DHT22;39655;53.210;5.768;2022-11-20T15:00:19;3.40;71.90
53748;DHT22;39655;53.210;5.768;2022-11-20T15:02:47;3.40;71.80
53748;DHT22;39655;53.210;5.768;2022-11-20T15:05:14;3.40;71.90
53748;DHT22;39655;53.210;5.768;2022-11-20T15:07:42;3.40;72.50
53748;DHT22;39655;53.210;5.768;2022-11-20T15:10:25;3.40;72.10
53748;DHT22;39655;53.210;5.768;2022-11-20T15:12:57;3.40;72.30
53748;DHT22;39655;53.210;5.768;2022-11-20T15:15:35;3.40;72.40
53748;DHT22;39655;53.210;5.768;2022-11-20T15:18:02;3.40;72.20
53748;DHT22;39655;53.210;5.768;2022-11-20T15:20:32;3.40;71.90
53748;DHT22;39655;53.210;5.768;2022-11-20T15:22:58;3.40;71.50
53748;DHT22;39655;53.210;5.768;2022-11-20T15:25:24;3.40;71.80
53748;DHT22;39655;53.210;5.768;2022-11-20T15:27:56;3.40;71.80
53748;DHT22;39655;53.210;5.768;2022-11-20T15:30:22;3.40;71.30
53748;DHT22;39655;53.210;5.768;2022-11-20T15:32:48;3.30;71.50
53748;DHT22;39655;53.210;5.768;2022-11-20T15:35:14;3.30;71.50
53748;DHT22;39655;53.210;5.768;2022-11-20T15:37:40;3.40;71.60
53748;DHT22;39655;53.210;5.768;2022-11-20T15:40:07;3.30;71.60
53748;DHT22;39655;53.210;5.768;2022-11-20T15:42:34;3.30;71.70
53748;DHT22;39655;53.210;5.768;2022-11-20T15:45:00;3.30;71.60
53748;DHT22;39655;53.210;5.768;2022-11-20T15:47:31;3.40;71.90
53748;DHT22;39655;53.210;5.768;2022-11-20T15:49:58;3.30;71.60
53748;DHT22;39655;53.210;5.768;2022-11-20T15:52:28;3.30;71.80
53748;DHT22;39655;53.210;5.768;2022-11-20T15:54:53;3.30;72.00
53748;DHT22;39655;53.210;5.768;2022-11-20T15:57:19;3.30;72.00
53748;DHT22;39655;53.210;5.768;2022-11-20T15:59:45;3.30;72.30
53748;DHT22;39655;53.210;5.768;2022-11-20T16:02:11;3.30;72.10
53748;DHT22;39655;53.210;5.768;2022-11-20T16:04:37;3.30;71.80
53748;DHT22;39655;53.210;5.768;2022-11-20T16:07:05;3.30;72.20
53748;DHT22;39655;53.210;5.768;2022-11-20T16:09:31;3.30;72.50
53748;DHT22;39655;53.210;5.768;2022-11-20T16:11:59;3.30;72.10
53748;DHT22;39655;53.210;5.768;2022-11-20T16:14:26;3.20;72.20
53748;DHT22;39655;53.210;5.768;2022-11-20T16:17:11;3.30;72.20
53748;DHT22;39655;53.210;5.768;2022-11-20T16:19:37;3.30;72.60
53748;DHT22;39655;53.210;5.768;2022-11-20T16:22:03;3.30;72.50
53748;DHT22;39655;53.210;5.768;2022-11-20T16:24:28;3.30;72.60
53748;DHT22;39655;53.210;5.768;2022-11-20T16:26:54;3.30;72.20
53748;DHT22;39655;53.210;5.768;2022-11-20T16:29:20;3.30;72.20
53748;DHT22;39655;53.210;5.768;2022-11-20T16:31:46;3.20;72.20
53748;DHT22;39655;53.210;5.768;2022-11-20T16:34:12;3.20;72.50
53748;DHT22;39655;53.210;5.768;2022-11-20T16:36:40;3.20;72.60
53748;DHT22;39655;53.210;5.768;2022-11-20T16:39:06;3.20;73.00
53748;DHT22;39655;53.210;5.768;2022-11-20T16:41:33;3.20;73.20
53748;DHT22;39655;53.210;5.768;2022-11-20T16:44:01;3.20;73.50
53748;DHT22;39655;53.210;5.768;2022-11-20T16:46:31;3.10;73.60
53748;DHT22;39655;53.210;5.768;2022-11-20T16:48:59;3.10;73.50
53748;DHT22;39655;53.210;5.768;2022-11-20T16:51:26;3.20;73.50
53748;DHT22;39655;53.210;5.768;2022-11-20T16:53:52;3.10;73.70
53748;DHT22;39655;53.210;5.768;2022-11-20T16:56:24;3.10;73.50
53748;DHT22;39655;53.210;5.768;2022-11-20T16:58:52;3.10;73.50
53748;DHT22;39655;53.210;5.768;2022-11-20T17:01:19;3.10;73.40
53748;DHT22;39655;53.210;5.768;2022-11-20T17:03:50;3.10;73.80
53748;DHT22;39655;53.210;5.768;2022-11-20T17:06:19;3.10;73.80
53748;DHT22;39655;53.210;5.768;2022-11-20T17:08:46;3.10;73.90
53748;DHT22;39655;53.210;5.768;2022-11-20T17:11:14;3.10;74.00
53748;DHT22;39655;53.210;5.768;2022-11-20T17:13:40;3.10;74.20
53748;DHT22;39655;53.210;5.768;2022-11-20T17:16:08;3.00;74.50
53748;DHT22;39655;53.210;5.768;2022-11-20T17:18:34;3.00;74.70
53748;DHT22;39655;53.210;5.768;2022-11-20T17:21:01;3.00;74.80
53748;DHT22;39655;53.210;5.768;2022-11-20T17:23:33;3.00;75.10
53748;DHT22;39655;53.210;5.768;2022-11-20T17:26:11;3.10;75.40
53748;DHT22;39655;53.210;5.768;2022-11-20T17:28:39;3.00;75.40
53748;DHT22;39655;53.210;5.768;2022-11-20T17:31:13;3.10;75.50
53748;DHT22;39655;53.210;5.768;2022-11-20T17:33:40;3.00;75.50